Thunder radar more information blitzortung!


Radar de pluja more information rain snow radar


Visita la nostra xarxa de llocs de meteo:

Template documentation
and downloads

And another site



No particular awareness of the weather is required.    There are no Weather-warnings

Pagina Historial Weather Underground text

Diari Resum January 22, 2018 Unitats:  Tant    Imperial   Mètric
« Previous Dia
SegĂźent Dia »
Diari Setmana Mensual Anual Personalitzada
  Maxima: Minima: Media:
Temperatura: TemperatureC °F /  -17.8 °C 11.3 °F /  -11.5 °C 14.2 °F /  -9.9 °C
Punt de rosada: DewpointC °F /  -17.8 °C 4.4 °F /  -15.3 °C 6.1 °F /  -14.4 °C
Humitat: Humidity % 50 % 58 %
Wind Speed: WindSpeedKMH mph /  0 km/h - 5.4 mph /  8.7 km/h
RĂ fegues de vent: WindSpeedGustKMH mph /  0 km/h - -
Vent:- - SW
Pression baro: PressurehPa in /  0 hPa 1021.9 in /  34601.5 hPa -
Precipitacions: 0.0 in /  0 mm    
Historical Graphs
 
 
Dades de taula per January 22, 2018
Temps Temperatura Punt de rosada Pression baro Vent Wind Speed RĂ fegues de vent Humitat Rainfall Rate (Hourly)
TemperatureC °F /  -17.8 °C DewpointC °F /  -17.8 °C PressurehPa in /  0 hPa Calm     Humidity % HourlyPrecipMM in /  0 mm
00:03 13.5 °F /  -10.3 °C 5.9 °F /  -14.5 °C 1022.9 in /  34635.4 hPa WSW 7.9 mph /  12.7 km/h 7.9 mph /  12.7 km/h 60 % 0.0 in /  0 mm
00:08 13.5 °F /  -10.3 °C 5.9 °F /  -14.5 °C 1022.9 in /  34635.4 hPa West 10.3 mph /  16.6 km/h 10.3 mph /  16.6 km/h 60 % 0.0 in /  0 mm
00:13 13.5 °F /  -10.3 °C 5.9 °F /  -14.5 °C 1022.9 in /  34635.4 hPa West 9.0 mph /  14.5 km/h 9.0 mph /  14.5 km/h 60 % 0.0 in /  0 mm
00:18 13.5 °F /  -10.3 °C 5.9 °F /  -14.5 °C 1022.9 in /  34635.4 hPa West 9.3 mph /  15 km/h 9.3 mph /  15 km/h 60 % 0.0 in /  0 mm
00:23 13.4 °F /  -10.3 °C 5.8 °F /  -14.6 °C 1022.9 in /  34635.4 hPa West 9.3 mph /  15 km/h 9.3 mph /  15 km/h 60 % 0.0 in /  0 mm
00:28 13.5 °F /  -10.3 °C 6.1 °F /  -14.4 °C 1022.9 in /  34635.4 hPa WSW 11.1 mph /  17.9 km/h 11.1 mph /  17.9 km/h 61 % 0.0 in /  0 mm
00:33 13.5 °F /  -10.3 °C 6.1 °F /  -14.4 °C 1022.9 in /  34635.4 hPa West 7.4 mph /  11.9 km/h 7.4 mph /  11.9 km/h 61 % 0.0 in /  0 mm
00:43 13.3 °F /  -10.4 °C 5.9 °F /  -14.5 °C 1022.9 in /  34635.4 hPa West 7.4 mph /  11.9 km/h 7.4 mph /  11.9 km/h 61 % 0.0 in /  0 mm
00:48 13.3 °F /  -10.4 °C 5.9 °F /  -14.5 °C 1022.9 in /  34635.4 hPa WNW 7.4 mph /  11.9 km/h 7.4 mph /  11.9 km/h 61 % 0.0 in /  0 mm
00:53 13.3 °F /  -10.4 °C 5.9 °F /  -14.5 °C 1022.9 in /  34635.4 hPa West 11.4 mph /  18.3 km/h 11.4 mph /  18.3 km/h 61 % 0.0 in /  0 mm
00:58 13.3 °F /  -10.4 °C 5.9 °F /  -14.5 °C 1022.9 in /  34635.4 hPa South 9.3 mph /  15 km/h 9.3 mph /  15 km/h 61 % 0.0 in /  0 mm
01:03 13.2 °F /  -10.4 °C 5.8 °F /  -14.6 °C 1023.9 in /  34669.3 hPa WSW 9.3 mph /  15 km/h 9.3 mph /  15 km/h 61 % 0.0 in /  0 mm
01:08 13.2 °F /  -10.4 °C 5.8 °F /  -14.6 °C 1023.9 in /  34669.3 hPa WSW 14.8 mph /  23.8 km/h 14.8 mph /  23.8 km/h 61 % 0.0 in /  0 mm
01:13 13.2 °F /  -10.4 °C 5.8 °F /  -14.6 °C 1023.9 in /  34669.3 hPa West 7.9 mph /  12.7 km/h 7.9 mph /  12.7 km/h 61 % 0.0 in /  0 mm
01:18 13.2 °F /  -10.4 °C 5.8 °F /  -14.6 °C 1022.9 in /  34635.4 hPa WSW 7.4 mph /  11.9 km/h 7.4 mph /  11.9 km/h 61 % 0.0 in /  0 mm
01:23 13.1 °F /  -10.5 °C 5.7 °F /  -14.6 °C 1022.9 in /  34635.4 hPa West 10.3 mph /  16.6 km/h 10.3 mph /  16.6 km/h 61 % 0.0 in /  0 mm
01:28 13.0 °F /  -10.6 °C 5.7 °F /  -14.6 °C 1022.9 in /  34635.4 hPa WSW 5.3 mph /  8.5 km/h 5.3 mph /  8.5 km/h 61 % 0.0 in /  0 mm
01:33 13.0 °F /  -10.6 °C 5.7 °F /  -14.6 °C 1022.9 in /  34635.4 hPa WNW 7.4 mph /  11.9 km/h 7.4 mph /  11.9 km/h 61 % 0.0 in /  0 mm
01:38 12.9 °F /  -10.6 °C 5.6 °F /  -14.7 °C 1022.9 in /  34635.4 hPa SSW 7.4 mph /  11.9 km/h 7.4 mph /  11.9 km/h 61 % 0.0 in /  0 mm
01:43 12.9 °F /  -10.6 °C 5.8 °F /  -14.6 °C 1022.9 in /  34635.4 hPa WNW 5.6 mph /  9 km/h 5.6 mph /  9 km/h 62 % 0.0 in /  0 mm
01:48 12.8 °F /  -10.7 °C 5.7 °F /  -14.6 °C 1022.9 in /  34635.4 hPa NNE 3.2 mph /  5.1 km/h 3.2 mph /  5.1 km/h 62 % 0.0 in /  0 mm
01:53 12.8 °F /  -10.7 °C 5.7 °F /  -14.6 °C 1022.9 in /  34635.4 hPa West 5.6 mph /  9 km/h 5.6 mph /  9 km/h 62 % 0.0 in /  0 mm
01:58 12.7 °F /  -10.7 °C 5.6 °F /  -14.7 °C 1022.9 in /  34635.4 hPa NE 3.7 mph /  6 km/h 3.7 mph /  6 km/h 62 % 0.0 in /  0 mm
02:04 12.7 °F /  -10.7 °C 5.6 °F /  -14.7 °C 1022.9 in /  34635.4 hPa West 3.7 mph /  6 km/h 3.7 mph /  6 km/h 62 % 0.0 in /  0 mm
02:09 12.8 °F /  -10.7 °C 5.7 °F /  -14.6 °C 1022.9 in /  34635.4 hPa WNW 7.4 mph /  11.9 km/h 7.4 mph /  11.9 km/h 62 % 0.0 in /  0 mm
02:14 12.7 °F /  -10.7 °C 5.6 °F /  -14.7 °C 1022.9 in /  34635.4 hPa ENE 2.6 mph /  4.2 km/h   62 % 0.0 in /  0 mm
02:19 12.9 °F /  -10.6 °C 5.8 °F /  -14.6 °C 1022.9 in /  34635.4 hPa WSW 4.2 mph /  6.8 km/h 4.2 mph /  6.8 km/h 62 % 0.0 in /  0 mm
02:24 12.8 °F /  -10.7 °C 5.7 °F /  -14.6 °C 1022.9 in /  34635.4 hPa ESE 5.6 mph /  9 km/h 5.6 mph /  9 km/h 62 % 0.0 in /  0 mm
02:29 12.7 °F /  -10.7 °C 5.6 °F /  -14.7 °C 1022.9 in /  34635.4 hPa NNE 3.7 mph /  6 km/h 3.7 mph /  6 km/h 62 % 0.0 in /  0 mm
02:34 12.7 °F /  -10.7 °C 5.6 °F /  -14.7 °C 1022.9 in /  34635.4 hPa SW 7.4 mph /  11.9 km/h 7.4 mph /  11.9 km/h 62 % 0.0 in /  0 mm
02:39 12.7 °F /  -10.7 °C 5.6 °F /  -14.7 °C 1022.9 in /  34635.4 hPa WSW 7.4 mph /  11.9 km/h 7.4 mph /  11.9 km/h 62 % 0.0 in /  0 mm
02:44 12.7 °F /  -10.7 °C 5.8 °F /  -14.6 °C 1022.9 in /  34635.4 hPa ENE 5.6 mph /  9 km/h 5.6 mph /  9 km/h 63 % 0.0 in /  0 mm
02:49 12.7 °F /  -10.7 °C 5.8 °F /  -14.6 °C 1022.9 in /  34635.4 hPa NW 5.6 mph /  9 km/h 5.6 mph /  9 km/h 63 % 0.0 in /  0 mm
02:54 12.6 °F /  -10.8 °C 5.7 °F /  -14.6 °C 1022.9 in /  34635.4 hPa WSW 3.7 mph /  6 km/h 3.7 mph /  6 km/h 63 % 0.0 in /  0 mm
02:59 12.6 °F /  -10.8 °C 5.7 °F /  -14.6 °C 1022.9 in /  34635.4 hPa SW 5.6 mph /  9 km/h 5.6 mph /  9 km/h 63 % 0.0 in /  0 mm
03:04 12.6 °F /  -10.8 °C 5.7 °F /  -14.6 °C 1022.9 in /  34635.4 hPa WNW 5.6 mph /  9 km/h 5.6 mph /  9 km/h 63 % 0.0 in /  0 mm
03:09 12.6 °F /  -10.8 °C 5.7 °F /  -14.6 °C 1022.9 in /  34635.4 hPa ESE 5.6 mph /  9 km/h 5.6 mph /  9 km/h 63 % 0.0 in /  0 mm
03:14 12.6 °F /  -10.8 °C 5.7 °F /  -14.6 °C 1022.9 in /  34635.4 hPa ENE 9.3 mph /  15 km/h 9.3 mph /  15 km/h 63 % 0.0 in /  0 mm
03:19 12.6 °F /  -10.8 °C 5.7 °F /  -14.6 °C 1022.9 in /  34635.4 hPa NNE 11.1 mph /  17.9 km/h 11.1 mph /  17.9 km/h 63 % 0.0 in /  0 mm
03:25 12.5 °F /  -10.8 °C 5.9 °F /  -14.5 °C 1022.9 in /  34635.4 hPa ESE 3.2 mph /  5.1 km/h 4.8 mph /  7.7 km/h 64 % 0.0 in /  0 mm
03:30 12.5 °F /  -10.8 °C 5.9 °F /  -14.5 °C 1022.9 in /  34635.4 hPa WSW 5.6 mph /  9 km/h 5.6 mph /  9 km/h 64 % 0.0 in /  0 mm
03:35 12.5 °F /  -10.8 °C 5.7 °F /  -14.6 °C 1022.9 in /  34635.4 hPa ENE 5.6 mph /  9 km/h 5.6 mph /  9 km/h 63 % 0.0 in /  0 mm
03:40 12.5 °F /  -10.8 °C 5.9 °F /  -14.5 °C 1022.9 in /  34635.4 hPa West 3.9 mph /  6.3 km/h 3.9 mph /  6.3 km/h 64 % 0.0 in /  0 mm
03:45 12.6 °F /  -10.8 °C 5.9 °F /  -14.5 °C 1022.9 in /  34635.4 hPa WSW 7.4 mph /  11.9 km/h 7.4 mph /  11.9 km/h 64 % 0.0 in /  0 mm
03:55 12.5 °F /  -10.8 °C 5.9 °F /  -14.5 °C 1022.9 in /  34635.4 hPa ENE 7.9 mph /  12.7 km/h 7.9 mph /  12.7 km/h 64 % 0.0 in /  0 mm
04:00 12.4 °F /  -10.9 °C 5.8 °F /  -14.6 °C 1022.9 in /  34635.4 hPa West 5.6 mph /  9 km/h 5.6 mph /  9 km/h 64 % 0.0 in /  0 mm
04:05 12.4 °F /  -10.9 °C 5.8 °F /  -14.6 °C 1022.9 in /  34635.4 hPa ENE 5.6 mph /  9 km/h 5.6 mph /  9 km/h 64 % 0.0 in /  0 mm
04:15 12.5 °F /  -10.8 °C 6.1 °F /  -14.4 °C 1022.9 in /  34635.4 hPa East 11.1 mph /  17.9 km/h 11.1 mph /  17.9 km/h 65 % 0.0 in /  0 mm
04:20 12.4 °F /  -10.9 °C 5.8 °F /  -14.6 °C 1022.9 in /  34635.4 hPa NW 5.3 mph /  8.5 km/h 5.3 mph /  8.5 km/h 64 % 0.0 in /  0 mm
04:25 12.3 °F /  -10.9 °C 5.7 °F /  -14.6 °C 1022.9 in /  34635.4 hPa WSW 7.4 mph /  11.9 km/h 7.4 mph /  11.9 km/h 64 % 0.0 in /  0 mm
04:30 12.3 °F /  -10.9 °C 5.9 °F /  -14.5 °C 1022.9 in /  34635.4 hPa NNW 3.7 mph /  6 km/h 3.7 mph /  6 km/h 65 % 0.0 in /  0 mm
04:35 12.3 °F /  -10.9 °C 5.9 °F /  -14.5 °C 1022.9 in /  34635.4 hPa NNW 7.4 mph /  11.9 km/h 7.4 mph /  11.9 km/h 65 % 0.0 in /  0 mm
04:40 12.4 °F /  -10.9 °C 5.8 °F /  -14.6 °C 1022.9 in /  34635.4 hPa West 7.4 mph /  11.9 km/h 7.4 mph /  11.9 km/h 64 % 0.0 in /  0 mm
04:45 12.3 °F /  -10.9 °C 5.9 °F /  -14.5 °C 1022.9 in /  34635.4 hPa WSW 5.6 mph /  9 km/h 5.6 mph /  9 km/h 65 % 0.0 in /  0 mm
04:55 12.2 °F /  -11 °C 5.8 °F /  -14.6 °C 1022.9 in /  34635.4 hPa West 3.2 mph /  5.1 km/h 8.0 mph /  12.9 km/h 65 % 0.0 in /  0 mm
05:20 12.1 °F /  -11.1 °C 5.7 °F /  -14.6 °C 1022.9 in /  34635.4 hPa WSW 7.4 mph /  11.9 km/h 7.4 mph /  11.9 km/h 65 % 0.0 in /  0 mm
05:25 12.1 °F /  -11.1 °C 5.7 °F /  -14.6 °C 1022.9 in /  34635.4 hPa WNW 13.0 mph /  20.9 km/h 13.0 mph /  20.9 km/h 65 % 0.0 in /  0 mm
05:30 12.1 °F /  -11.1 °C 5.7 °F /  -14.6 °C 1022.9 in /  34635.4 hPa WSW 9.7 mph /  15.6 km/h 9.7 mph /  15.6 km/h 65 % 0.0 in /  0 mm
05:40 12.1 °F /  -11.1 °C 5.9 °F /  -14.5 °C 1021.9 in /  34601.5 hPa NNW 5.8 mph /  9.3 km/h 5.8 mph /  9.3 km/h 66 % 0.0 in /  0 mm
05:45 12.2 °F /  -11 °C 6.1 °F /  -14.4 °C 1021.9 in /  34601.5 hPa NNW 5.6 mph /  9 km/h 5.6 mph /  9 km/h 66 % 0.0 in /  0 mm
05:50 12.2 °F /  -11 °C 6.1 °F /  -14.4 °C 1022.9 in /  34635.4 hPa NE 7.4 mph /  11.9 km/h 7.4 mph /  11.9 km/h 66 % 0.0 in /  0 mm
05:55 12.2 °F /  -11 °C 6.1 °F /  -14.4 °C 1022.9 in /  34635.4 hPa West 3.7 mph /  6 km/h 3.7 mph /  6 km/h 66 % 0.0 in /  0 mm
06:00 12.2 °F /  -11 °C 5.8 °F /  -14.6 °C 1022.9 in /  34635.4 hPa NE 11.1 mph /  17.9 km/h 11.1 mph /  17.9 km/h 65 % 0.0 in /  0 mm
06:05 12.2 °F /  -11 °C 6.1 °F /  -14.4 °C 1022.9 in /  34635.4 hPa SE 9.3 mph /  15 km/h 9.3 mph /  15 km/h 66 % 0.0 in /  0 mm
06:10 12.2 °F /  -11 °C 5.8 °F /  -14.6 °C 1022.9 in /  34635.4 hPa SW 7.4 mph /  11.9 km/h 7.4 mph /  11.9 km/h 65 % 0.0 in /  0 mm
06:15 12.1 °F /  -11.1 °C 5.7 °F /  -14.6 °C 1022.9 in /  34635.4 hPa WNW 5.6 mph /  9 km/h 5.6 mph /  9 km/h 65 % 0.0 in /  0 mm
06:20 11.8 °F /  -11.2 °C 5.7 °F /  -14.6 °C 1022.9 in /  34635.4 hPa NNE 7.9 mph /  12.7 km/h 7.9 mph /  12.7 km/h 66 % 0.0 in /  0 mm
06:25 11.8 °F /  -11.2 °C 5.7 °F /  -14.6 °C 1022.9 in /  34635.4 hPa ESE 5.6 mph /  9 km/h 5.6 mph /  9 km/h 66 % 0.0 in /  0 mm
06:30 11.7 °F /  -11.3 °C 5.6 °F /  -14.7 °C 1022.9 in /  34635.4 hPa West 5.8 mph /  9.3 km/h 5.8 mph /  9.3 km/h 66 % 0.0 in /  0 mm
06:35 11.7 °F /  -11.3 °C 5.6 °F /  -14.7 °C 1022.9 in /  34635.4 hPa South 1.9 mph /  3.1 km/h 2.3 mph /  3.7 km/h 66 % 0.0 in /  0 mm
06:40 11.7 °F /  -11.3 °C 5.6 °F /  -14.7 °C 1022.9 in /  34635.4 hPa WSW 5.6 mph /  9 km/h 5.6 mph /  9 km/h 66 % 0.0 in /  0 mm
06:50 11.5 °F /  -11.4 °C 5.6 °F /  -14.7 °C 1022.9 in /  34635.4 hPa WSW 6.1 mph /  9.8 km/h   67 % 0.0 in /  0 mm
06:55 11.6 °F /  -11.3 °C 5.7 °F /  -14.6 °C 1022.9 in /  34635.4 hPa SW 3.7 mph /  6 km/h 3.7 mph /  6 km/h 67 % 0.0 in /  0 mm
07:00 11.5 °F /  -11.4 °C 5.6 °F /  -14.7 °C 1022.9 in /  34635.4 hPa ENE 2.6 mph /  4.2 km/h 2.6 mph /  4.2 km/h 67 % 0.0 in /  0 mm
07:05 11.5 °F /  -11.4 °C 5.4 °F /  -14.8 °C 1022.9 in /  34635.4 hPa NNW 3.7 mph /  6 km/h 3.7 mph /  6 km/h 66 % 0.0 in /  0 mm
07:10 11.5 °F /  -11.4 °C 5.6 °F /  -14.7 °C 1022.9 in /  34635.4 hPa WSW 5.0 mph /  8 km/h 5.0 mph /  8 km/h 67 % 0.0 in /  0 mm
07:15 11.6 °F /  -11.3 °C 5.7 °F /  -14.6 °C 1022.9 in /  34635.4 hPa NW 13.0 mph /  20.9 km/h 13.0 mph /  20.9 km/h 67 % 0.0 in /  0 mm
07:20 11.5 °F /  -11.4 °C 5.6 °F /  -14.7 °C 1022.9 in /  34635.4 hPa NW 9.3 mph /  15 km/h 9.3 mph /  15 km/h 67 % 0.0 in /  0 mm
07:25 11.5 °F /  -11.4 °C 5.6 °F /  -14.7 °C 1022.9 in /  34635.4 hPa NNW 9.0 mph /  14.5 km/h 9.0 mph /  14.5 km/h 67 % 0.0 in /  0 mm
07:30 11.4 °F /  -11.4 °C 5.5 °F /  -14.7 °C 1022.9 in /  34635.4 hPa West 3.7 mph /  6 km/h 3.7 mph /  6 km/h 67 % 0.0 in /  0 mm
07:35 11.4 °F /  -11.4 °C 5.5 °F /  -14.7 °C 1023.9 in /  34669.3 hPa WNW 7.4 mph /  11.9 km/h   67 % 0.0 in /  0 mm
07:40 11.4 °F /  -11.4 °C 5.5 °F /  -14.7 °C 1023.9 in /  34669.3 hPa WNW 7.4 mph /  11.9 km/h 7.4 mph /  11.9 km/h 67 % 0.0 in /  0 mm
07:45 11.4 °F /  -11.4 °C 5.5 °F /  -14.7 °C 1023.9 in /  34669.3 hPa West 5.6 mph /  9 km/h 5.6 mph /  9 km/h 67 % 0.0 in /  0 mm
07:50 11.4 °F /  -11.4 °C 5.5 °F /  -14.7 °C 1022.9 in /  34635.4 hPa NE 11.1 mph /  17.9 km/h 11.1 mph /  17.9 km/h 67 % 0.0 in /  0 mm
07:55 11.4 °F /  -11.4 °C 5.5 °F /  -14.7 °C 1022.9 in /  34635.4 hPa WSW 7.4 mph /  11.9 km/h 7.4 mph /  11.9 km/h 67 % 0.0 in /  0 mm
08:00 11.3 °F /  -11.5 °C 5.4 °F /  -14.8 °C 1022.9 in /  34635.4 hPa NW 5.6 mph /  9 km/h 5.6 mph /  9 km/h 67 % 0.0 in /  0 mm
08:05 11.3 °F /  -11.5 °C 5.4 °F /  -14.8 °C 1023.9 in /  34669.3 hPa WNW 7.4 mph /  11.9 km/h 7.4 mph /  11.9 km/h 67 % 0.0 in /  0 mm
08:10 11.3 °F /  -11.5 °C 5.4 °F /  -14.8 °C 1023.9 in /  34669.3 hPa WSW 7.4 mph /  11.9 km/h 7.4 mph /  11.9 km/h 67 % 0.0 in /  0 mm
08:15 11.3 °F /  -11.5 °C 5.4 °F /  -14.8 °C 1023.9 in /  34669.3 hPa SW 5.6 mph /  9 km/h 5.6 mph /  9 km/h 67 % 0.0 in /  0 mm
08:20 11.3 °F /  -11.5 °C 5.4 °F /  -14.8 °C 1023.9 in /  34669.3 hPa WNW 5.6 mph /  9 km/h 5.6 mph /  9 km/h 67 % 0.0 in /  0 mm
08:25 11.3 °F /  -11.5 °C 5.4 °F /  -14.8 °C 1023.9 in /  34669.3 hPa WSW 3.9 mph /  6.3 km/h 3.9 mph /  6.3 km/h 67 % 0.0 in /  0 mm
08:30 11.4 °F /  -11.4 °C 5.5 °F /  -14.7 °C 1023.9 in /  34669.3 hPa WSW 7.4 mph /  11.9 km/h 7.4 mph /  11.9 km/h 67 % 0.0 in /  0 mm
08:35 11.5 °F /  -11.4 °C 5.6 °F /  -14.7 °C 1023.9 in /  34669.3 hPa West 6.4 mph /  10.3 km/h 6.4 mph /  10.3 km/h 67 % 0.0 in /  0 mm
08:40 11.5 °F /  -11.4 °C 5.6 °F /  -14.7 °C 1023.9 in /  34669.3 hPa ENE 3.7 mph /  6 km/h 3.7 mph /  6 km/h 67 % 0.0 in /  0 mm
08:45 11.6 °F /  -11.3 °C 5.9 °F /  -14.5 °C 1023.9 in /  34669.3 hPa NW 1.9 mph /  3.1 km/h 1.9 mph /  3.1 km/h 68 % 0.0 in /  0 mm
08:50 11.7 °F /  -11.3 °C 5.8 °F /  -14.6 °C 1023.9 in /  34669.3 hPa West 3.2 mph /  5.1 km/h 3.2 mph /  5.1 km/h 67 % 0.0 in /  0 mm
08:55 12.1 °F /  -11.1 °C 6.2 °F /  -14.3 °C 1023.9 in /  34669.3 hPa Calm     67 % 0.0 in /  0 mm
09:00 12.1 °F /  -11.1 °C 6.2 °F /  -14.3 °C 1023.9 in /  34669.3 hPa NNW 1.9 mph /  3.1 km/h   67 % 0.0 in /  0 mm
09:05 12.1 °F /  -11.1 °C 6.2 °F /  -14.3 °C 1023.9 in /  34669.3 hPa NE 3.7 mph /  6 km/h 3.7 mph /  6 km/h 67 % 0.0 in /  0 mm
09:10 12.1 °F /  -11.1 °C 6.2 °F /  -14.3 °C 1023.9 in /  34669.3 hPa ENE 3.7 mph /  6 km/h   67 % 0.0 in /  0 mm
09:15 12.4 °F /  -10.9 °C 6.4 °F /  -14.2 °C 1023.9 in /  34669.3 hPa ENE 1.9 mph /  3.1 km/h 1.9 mph /  3.1 km/h 67 % 0.0 in /  0 mm
09:20 12.6 °F /  -10.8 °C 6.4 °F /  -14.2 °C 1023.9 in /  34669.3 hPa NE 4.2 mph /  6.8 km/h 4.2 mph /  6.8 km/h 66 % 0.0 in /  0 mm
09:25 12.4 °F /  -10.9 °C 6.2 °F /  -14.3 °C 1023.9 in /  34669.3 hPa ENE 5.6 mph /  9 km/h 5.6 mph /  9 km/h 66 % 0.0 in /  0 mm
09:30 12.1 °F /  -11.1 °C 5.7 °F /  -14.6 °C 1023.9 in /  34669.3 hPa NNE 5.6 mph /  9 km/h 5.6 mph /  9 km/h 65 % 0.0 in /  0 mm
09:35 12.0 °F /  -11.1 °C 5.8 °F /  -14.6 °C 1023.9 in /  34669.3 hPa NNW 5.6 mph /  9 km/h 5.6 mph /  9 km/h 66 % 0.0 in /  0 mm
09:40 12.0 °F /  -11.1 °C 5.8 °F /  -14.6 °C 1023.9 in /  34669.3 hPa NNE 4.7 mph /  7.6 km/h 4.7 mph /  7.6 km/h 66 % 0.0 in /  0 mm
09:50 12.2 °F /  -11 °C 6.1 °F /  -14.4 °C 1023.9 in /  34669.3 hPa NNE 4.2 mph /  6.8 km/h 4.2 mph /  6.8 km/h 66 % 0.0 in /  0 mm
10:00 12.4 °F /  -10.9 °C 6.2 °F /  -14.3 °C 1023.9 in /  34669.3 hPa NE 3.7 mph /  6 km/h 3.7 mph /  6 km/h 66 % 0.0 in /  0 mm
10:05 12.7 °F /  -10.7 °C 6.5 °F /  -14.2 °C 1024.9 in /  34703.1 hPa SW 5.6 mph /  9 km/h 5.6 mph /  9 km/h 66 % 0.0 in /  0 mm
10:10 13.1 °F /  -10.5 °C 6.7 °F /  -14.1 °C 1024.9 in /  34703.1 hPa West 7.4 mph /  11.9 km/h 7.4 mph /  11.9 km/h 65 % 0.0 in /  0 mm
10:15 13.4 °F /  -10.3 °C 6.9 °F /  -13.9 °C 1024.9 in /  34703.1 hPa WNW 9.3 mph /  15 km/h 9.3 mph /  15 km/h 65 % 0.0 in /  0 mm
10:20 13.6 °F /  -10.2 °C 7.2 °F /  -13.8 °C 1024.9 in /  34703.1 hPa WSW 1.9 mph /  3.1 km/h 1.9 mph /  3.1 km/h 65 % 0.0 in /  0 mm
10:25 13.8 °F /  -10.1 °C 7.1 °F /  -13.8 °C 1024.9 in /  34703.1 hPa WSW 5.8 mph /  9.3 km/h 5.8 mph /  9.3 km/h 64 % 0.0 in /  0 mm
10:30 14.1 °F /  -9.9 °C 7.4 °F /  -13.7 °C 1024.9 in /  34703.1 hPa SW 5.6 mph /  9 km/h   64 % 0.0 in /  0 mm
10:35 14.1 °F /  -9.9 °C 7.4 °F /  -13.7 °C 1023.9 in /  34669.3 hPa WSW 11.1 mph /  17.9 km/h 11.1 mph /  17.9 km/h 64 % 0.0 in /  0 mm
10:40 14.2 °F /  -9.9 °C 7.3 °F /  -13.7 °C 1023.9 in /  34669.3 hPa NNE 5.6 mph /  9 km/h 5.6 mph /  9 km/h 63 % 0.0 in /  0 mm
10:45 14.5 °F /  -9.7 °C 7.6 °F /  -13.6 °C 1023.9 in /  34669.3 hPa WSW 7.4 mph /  11.9 km/h 7.4 mph /  11.9 km/h 63 % 0.0 in /  0 mm
10:50 14.6 °F /  -9.7 °C 7.6 °F /  -13.6 °C 1023.9 in /  34669.3 hPa NNW 5.8 mph /  9.3 km/h 5.8 mph /  9.3 km/h 63 % 0.0 in /  0 mm
10:55 14.8 °F /  -9.6 °C 7.6 °F /  -13.6 °C 1023.9 in /  34669.3 hPa West 3.7 mph /  6 km/h 3.7 mph /  6 km/h 62 % 0.0 in /  0 mm
11:00 14.9 °F /  -9.5 °C 7.7 °F /  -13.5 °C 1023.9 in /  34669.3 hPa West 6.1 mph /  9.8 km/h 6.1 mph /  9.8 km/h 62 % 0.0 in /  0 mm
11:05 15.0 °F /  -9.4 °C 7.8 °F /  -13.4 °C 1024.9 in /  34703.1 hPa SW 3.7 mph /  6 km/h 3.7 mph /  6 km/h 62 % 0.0 in /  0 mm
11:10 15.0 °F /  -9.4 °C 7.6 °F /  -13.6 °C 1024.9 in /  34703.1 hPa WSW 7.4 mph /  11.9 km/h 7.4 mph /  11.9 km/h 61 % 0.0 in /  0 mm
11:15 15.2 °F /  -9.3 °C 7.7 °F /  -13.5 °C 1024.9 in /  34703.1 hPa SW 3.7 mph /  6 km/h 3.7 mph /  6 km/h 61 % 0.0 in /  0 mm
11:20 15.5 °F /  -9.2 °C 8.0 °F /  -13.3 °C 1024.9 in /  34703.1 hPa WSW 5.6 mph /  9 km/h 5.6 mph /  9 km/h 61 % 0.0 in /  0 mm
11:25 15.6 °F /  -9.1 °C 8.1 °F /  -13.3 °C 1024.9 in /  34703.1 hPa WSW 4.7 mph /  7.6 km/h 4.7 mph /  7.6 km/h 61 % 0.0 in /  0 mm
11:30 15.6 °F /  -9.1 °C 7.8 °F /  -13.4 °C 1024.9 in /  34703.1 hPa WSW 7.4 mph /  11.9 km/h 7.4 mph /  11.9 km/h 60 % 0.0 in /  0 mm
11:40 15.8 °F /  -9 °C 7.8 °F /  -13.4 °C 1024.9 in /  34703.1 hPa ENE 9.3 mph /  15 km/h 9.3 mph /  15 km/h 59 % 0.0 in /  0 mm
11:45 15.8 °F /  -9 °C 7.8 °F /  -13.4 °C 1024.9 in /  34703.1 hPa West 9.5 mph /  15.3 km/h 9.5 mph /  15.3 km/h 59 % 0.0 in /  0 mm
11:55 16.1 °F /  -8.8 °C 7.8 °F /  -13.4 °C 1023.9 in /  34669.3 hPa West 5.8 mph /  9.3 km/h 5.8 mph /  9.3 km/h 58 % 0.0 in /  0 mm
12:00 16.2 °F /  -8.8 °C 7.9 °F /  -13.4 °C 1023.9 in /  34669.3 hPa WNW 9.3 mph /  15 km/h 9.3 mph /  15 km/h 58 % 0.0 in /  0 mm
12:05 16.4 °F /  -8.7 °C 8.1 °F /  -13.3 °C 1023.9 in /  34669.3 hPa SW 6.9 mph /  11.1 km/h 6.9 mph /  11.1 km/h 58 % 0.0 in /  0 mm
12:10 16.5 °F /  -8.6 °C 7.9 °F /  -13.4 °C 1023.9 in /  34669.3 hPa SSW 7.4 mph /  11.9 km/h 7.4 mph /  11.9 km/h 57 % 0.0 in /  0 mm
12:15 17.0 °F /  -8.3 °C 8.2 °F /  -13.2 °C 1023.9 in /  34669.3 hPa WSW 5.0 mph /  8 km/h 5.0 mph /  8 km/h 56 % 0.0 in /  0 mm
12:20 17.1 °F /  -8.3 °C 8.2 °F /  -13.2 °C 1023.9 in /  34669.3 hPa WSW 5.6 mph /  9 km/h 5.6 mph /  9 km/h 56 % 0.0 in /  0 mm
12:25 17.0 °F /  -8.3 °C 7.9 °F /  -13.4 °C 1023.9 in /  34669.3 hPa WSW 13.0 mph /  20.9 km/h 13.0 mph /  20.9 km/h 55 % 0.0 in /  0 mm
12:30 17.0 °F /  -8.3 °C 7.9 °F /  -13.4 °C 1023.9 in /  34669.3 hPa West 10.3 mph /  16.6 km/h 10.3 mph /  16.6 km/h 55 % 0.0 in /  0 mm
12:45 17.2 °F /  -8.2 °C 7.8 °F /  -13.4 °C 1023.9 in /  34669.3 hPa West 7.4 mph /  11.9 km/h 7.9 mph /  12.7 km/h 54 % 0.0 in /  0 mm
12:50 17.1 °F /  -8.3 °C 7.7 °F /  -13.5 °C 1022.9 in /  34635.4 hPa WNW 16.7 mph /  26.9 km/h 16.7 mph /  26.9 km/h 54 % 0.0 in /  0 mm
12:55 17.1 °F /  -8.3 °C 7.4 °F /  -13.7 °C 1022.9 in /  34635.4 hPa SW 11.1 mph /  17.9 km/h 11.1 mph /  17.9 km/h 53 % 0.0 in /  0 mm
13:05 17.3 °F /  -8.2 °C 7.6 °F /  -13.6 °C 1022.9 in /  34635.4 hPa WSW 13.0 mph /  20.9 km/h 13.0 mph /  20.9 km/h 53 % 0.0 in /  0 mm
13:10 17.7 °F /  -7.9 °C 8.0 °F /  -13.3 °C 1022.9 in /  34635.4 hPa WNW 7.4 mph /  11.9 km/h 7.4 mph /  11.9 km/h 53 % 0.0 in /  0 mm
13:15 18.0 °F /  -7.8 °C 8.3 °F /  -13.2 °C 1022.9 in /  34635.4 hPa West 9.0 mph /  14.5 km/h 9.0 mph /  14.5 km/h 53 % 0.0 in /  0 mm
13:20 18.1 °F /  -7.7 °C 8.4 °F /  -13.1 °C 1022.9 in /  34635.4 hPa North 9.3 mph /  15 km/h 9.3 mph /  15 km/h 53 % 0.0 in /  0 mm
13:25 18.2 °F /  -7.7 °C 8.4 °F /  -13.1 °C 1022.9 in /  34635.4 hPa SSW 5.6 mph /  9 km/h 6.4 mph /  10.3 km/h 53 % 0.0 in /  0 mm
13:30 18.0 °F /  -7.8 °C 8.0 °F /  -13.3 °C 1022.9 in /  34635.4 hPa West 14.8 mph /  23.8 km/h 14.8 mph /  23.8 km/h 52 % 0.0 in /  0 mm
13:45 18.2 °F /  -7.7 °C 8.2 °F /  -13.2 °C 1022.9 in /  34635.4 hPa NE 3.7 mph /  6 km/h 3.7 mph /  6 km/h 52 % 0.0 in /  0 mm
13:50 18.4 °F /  -7.6 °C 8.4 °F /  -13.1 °C 1022.9 in /  34635.4 hPa SSW 6.9 mph /  11.1 km/h 6.9 mph /  11.1 km/h 52 % 0.0 in /  0 mm
14:00 18.1 °F /  -7.7 °C 7.8 °F /  -13.4 °C 1022.9 in /  34635.4 hPa SW 9.3 mph /  15 km/h 9.3 mph /  15 km/h 51 % 0.0 in /  0 mm
14:05 18.0 °F /  -7.8 °C 7.7 °F /  -13.5 °C 1021.9 in /  34601.5 hPa SW 7.4 mph /  11.9 km/h 7.4 mph /  11.9 km/h 51 % 0.0 in /  0 mm
14:10 18.3 °F /  -7.6 °C 8.0 °F /  -13.3 °C 1021.9 in /  34601.5 hPa WSW 7.4 mph /  11.9 km/h 7.4 mph /  11.9 km/h 51 % 0.0 in /  0 mm
14:15 18.1 °F /  -7.7 °C 7.5 °F /  -13.6 °C 1021.9 in /  34601.5 hPa West 22.2 mph /  35.7 km/h 22.2 mph /  35.7 km/h 50 % 0.0 in /  0 mm
14:20 18.2 °F /  -7.7 °C 7.9 °F /  -13.4 °C 1021.9 in /  34601.5 hPa ENE 13.0 mph /  20.9 km/h 13.0 mph /  20.9 km/h 51 % 0.0 in /  0 mm
14:25 18.0 °F /  -7.8 °C 7.4 °F /  -13.7 °C 1021.9 in /  34601.5 hPa West 14.8 mph /  23.8 km/h 14.8 mph /  23.8 km/h 50 % 0.0 in /  0 mm
14:30 18.0 °F /  -7.8 °C 7.4 °F /  -13.7 °C 1021.9 in /  34601.5 hPa SW 9.3 mph /  15 km/h 9.3 mph /  15 km/h 50 % 0.0 in /  0 mm
14:35 18.2 °F /  -7.7 °C 7.6 °F /  -13.6 °C 1022.9 in /  34635.4 hPa West 7.4 mph /  11.9 km/h 7.4 mph /  11.9 km/h 50 % 0.0 in /  0 mm
14:40 18.2 °F /  -7.7 °C 7.6 °F /  -13.6 °C 1022.9 in /  34635.4 hPa West 13.0 mph /  20.9 km/h 13.0 mph /  20.9 km/h 50 % 0.0 in /  0 mm
14:45 18.3 °F /  -7.6 °C 7.7 °F /  -13.5 °C 1022.9 in /  34635.4 hPa WSW 9.3 mph /  15 km/h 9.3 mph /  15 km/h 50 % 0.0 in /  0 mm
14:50 18.5 °F /  -7.5 °C 7.9 °F /  -13.4 °C 1021.9 in /  34601.5 hPa WSW 10.3 mph /  16.6 km/h 10.3 mph /  16.6 km/h 50 % 0.0 in /  0 mm
14:55 18.8 °F /  -7.3 °C 8.2 °F /  -13.2 °C 1021.9 in /  34601.5 hPa WSW 8.7 mph /  14 km/h 8.7 mph /  14 km/h 50 % 0.0 in /  0 mm
15:00 18.5 °F /  -7.5 °C 7.9 °F /  -13.4 °C 1021.9 in /  34601.5 hPa WSW 9.3 mph /  15 km/h 9.3 mph /  15 km/h 50 % 0.0 in /  0 mm
15:05 18.6 °F /  -7.4 °C 7.9 °F /  -13.4 °C 1022.9 in /  34635.4 hPa SW 9.3 mph /  15 km/h 9.3 mph /  15 km/h 50 % 0.0 in /  0 mm
15:10 18.5 °F /  -7.5 °C 7.9 °F /  -13.4 °C 1022.9 in /  34635.4 hPa WSW 9.3 mph /  15 km/h 9.3 mph /  15 km/h 50 % 0.0 in /  0 mm
15:15 18.5 °F /  -7.5 °C 7.9 °F /  -13.4 °C 1022.9 in /  34635.4 hPa WSW 4.8 mph /  7.7 km/h 9.7 mph /  15.6 km/h 50 % 0.0 in /  0 mm
15:20 18.6 °F /  -7.4 °C 7.9 °F /  -13.4 °C 1021.9 in /  34601.5 hPa West 4.8 mph /  7.7 km/h 9.7 mph /  15.6 km/h 50 % 0.0 in /  0 mm
15:30 18.7 °F /  -7.4 °C 8.1 °F /  -13.3 °C 1021.9 in /  34601.5 hPa WSW 1.6 mph /  2.6 km/h 6.4 mph /  10.3 km/h 50 % 0.0 in /  0 mm
15:35 18.6 °F /  -7.4 °C 7.9 °F /  -13.4 °C 1021.9 in /  34601.5 hPa WSW 4.8 mph /  7.7 km/h 9.7 mph /  15.6 km/h 50 % 0.0 in /  0 mm
15:40 18.5 °F /  -7.5 °C 7.9 °F /  -13.4 °C 1021.9 in /  34601.5 hPa West 4.8 mph /  7.7 km/h 9.7 mph /  15.6 km/h 50 % 0.0 in /  0 mm
15:45 18.4 °F /  -7.6 °C 7.8 °F /  -13.4 °C 1021.9 in /  34601.5 hPa WSW 3.2 mph /  5.1 km/h 4.8 mph /  7.7 km/h 50 % 0.0 in /  0 mm
15:50 18.3 °F /  -7.6 °C 7.7 °F /  -13.5 °C 1022.9 in /  34635.4 hPa WSW 5.6 mph /  9 km/h 5.6 mph /  9 km/h 50 % 0.0 in /  0 mm
15:55 18.2 °F /  -7.7 °C 7.6 °F /  -13.6 °C 1022.9 in /  34635.4 hPa WSW 5.6 mph /  9 km/h 5.6 mph /  9 km/h 50 % 0.0 in /  0 mm
16:00 18.1 °F /  -7.7 °C 7.5 °F /  -13.6 °C 1022.9 in /  34635.4 hPa WNW 5.6 mph /  9 km/h 5.6 mph /  9 km/h 50 % 0.0 in /  0 mm
16:05 18.0 °F /  -7.8 °C 7.4 °F /  -13.7 °C 1022.9 in /  34635.4 hPa WSW 4.2 mph /  6.8 km/h 4.2 mph /  6.8 km/h 50 % 0.0 in /  0 mm
16:10 17.8 °F /  -7.9 °C 7.2 °F /  -13.8 °C 1022.9 in /  34635.4 hPa WSW 4.2 mph /  6.8 km/h 4.2 mph /  6.8 km/h 50 % 0.0 in /  0 mm
16:15 17.6 °F /  -8 °C 7.1 °F /  -13.8 °C 1022.9 in /  34635.4 hPa West 5.6 mph /  9 km/h 5.6 mph /  9 km/h 50 % 0.0 in /  0 mm
16:20 17.5 °F /  -8.1 °C 6.9 °F /  -13.9 °C 1022.9 in /  34635.4 hPa WSW 5.6 mph /  9 km/h 5.6 mph /  9 km/h 50 % 0.0 in /  0 mm
16:25 17.4 °F /  -8.1 °C 6.9 °F /  -13.9 °C 1022.9 in /  34635.4 hPa West 3.2 mph /  5.1 km/h 8.0 mph /  12.9 km/h 50 % 0.0 in /  0 mm
16:30 17.3 °F /  -8.2 °C 6.8 °F /  -14 °C 1022.9 in /  34635.4 hPa WSW 5.6 mph /  9 km/h 5.6 mph /  9 km/h 50 % 0.0 in /  0 mm
16:35 17.1 °F /  -8.3 °C 6.6 °F /  -14.1 °C 1022.9 in /  34635.4 hPa West 3.2 mph /  5.1 km/h 9.7 mph /  15.6 km/h 50 % 0.0 in /  0 mm
16:40 17.0 °F /  -8.3 °C 6.5 °F /  -14.2 °C 1022.9 in /  34635.4 hPa West 3.2 mph /  5.1 km/h 8.0 mph /  12.9 km/h 50 % 0.0 in /  0 mm
16:45 17.0 °F /  -8.3 °C 6.5 °F /  -14.2 °C 1022.9 in /  34635.4 hPa West 1.6 mph /  2.6 km/h 9.7 mph /  15.6 km/h 50 % 0.0 in /  0 mm
16:50 16.9 °F /  -8.4 °C 6.7 °F /  -14.1 °C 1022.9 in /  34635.4 hPa West 1.6 mph /  2.6 km/h 4.8 mph /  7.7 km/h 51 % 0.0 in /  0 mm
16:55 16.8 °F /  -8.4 °C 6.6 °F /  -14.1 °C 1022.9 in /  34635.4 hPa SE 3.7 mph /  6 km/h 3.7 mph /  6 km/h 51 % 0.0 in /  0 mm
17:00 16.7 °F /  -8.5 °C 6.5 °F /  -14.2 °C 1022.9 in /  34635.4 hPa West 3.2 mph /  5.1 km/h 4.8 mph /  7.7 km/h 51 % 0.0 in /  0 mm
17:05 16.7 °F /  -8.5 °C 6.5 °F /  -14.2 °C 1022.9 in /  34635.4 hPa WSW 3.2 mph /  5.1 km/h 4.8 mph /  7.7 km/h 51 % 0.0 in /  0 mm
17:10 16.5 °F /  -8.6 °C 6.3 °F /  -14.3 °C 1022.9 in /  34635.4 hPa West 3.2 mph /  5.1 km/h 8.0 mph /  12.9 km/h 51 % 0.0 in /  0 mm
17:15 16.5 °F /  -8.6 °C 6.3 °F /  -14.3 °C 1022.9 in /  34635.4 hPa WSW 1.6 mph /  2.6 km/h 4.8 mph /  7.7 km/h 51 % 0.0 in /  0 mm
17:20 16.5 °F /  -8.6 °C 6.3 °F /  -14.3 °C 1022.9 in /  34635.4 hPa West 1.6 mph /  2.6 km/h 3.2 mph /  5.1 km/h 51 % 0.0 in /  0 mm
17:25 16.4 °F /  -8.7 °C 6.2 °F /  -14.3 °C 1022.9 in /  34635.4 hPa Calm   6.4 mph /  10.3 km/h 51 % 0.0 in /  0 mm
17:30 16.3 °F /  -8.7 °C 6.1 °F /  -14.4 °C 1022.9 in /  34635.4 hPa Calm   3.2 mph /  5.1 km/h 51 % 0.0 in /  0 mm
17:35 16.2 °F /  -8.8 °C 6.3 °F /  -14.3 °C 1022.9 in /  34635.4 hPa SSW 1.6 mph /  2.6 km/h 3.2 mph /  5.1 km/h 52 % 0.0 in /  0 mm
17:40 16.0 °F /  -8.9 °C 6.2 °F /  -14.3 °C 1022.9 in /  34635.4 hPa SSW 1.6 mph /  2.6 km/h 3.2 mph /  5.1 km/h 52 % 0.0 in /  0 mm
17:45 15.9 °F /  -8.9 °C 6.1 °F /  -14.4 °C 1022.9 in /  34635.4 hPa SW 1.6 mph /  2.6 km/h 3.2 mph /  5.1 km/h 52 % 0.0 in /  0 mm
17:50 15.7 °F /  -9.1 °C 5.9 °F /  -14.5 °C 1022.9 in /  34635.4 hPa Calm   3.2 mph /  5.1 km/h 52 % 0.0 in /  0 mm
17:55 15.6 °F /  -9.1 °C 5.8 °F /  -14.6 °C 1022.9 in /  34635.4 hPa SSW 1.6 mph /  2.6 km/h 6.4 mph /  10.3 km/h 52 % 0.0 in /  0 mm
18:00 15.5 °F /  -9.2 °C 5.7 °F /  -14.6 °C 1022.9 in /  34635.4 hPa SSW 1.6 mph /  2.6 km/h 3.2 mph /  5.1 km/h 52 % 0.0 in /  0 mm
18:05 15.4 °F /  -9.2 °C 5.6 °F /  -14.7 °C 1022.9 in /  34635.4 hPa SSW 3.2 mph /  5.1 km/h 4.8 mph /  7.7 km/h 52 % 0.0 in /  0 mm
18:10 15.2 °F /  -9.3 °C 5.4 °F /  -14.8 °C 1022.9 in /  34635.4 hPa SW 1.6 mph /  2.6 km/h 4.8 mph /  7.7 km/h 52 % 0.0 in /  0 mm
18:15 15.1 °F /  -9.4 °C 5.3 °F /  -14.8 °C 1022.9 in /  34635.4 hPa West 3.7 mph /  6 km/h 3.7 mph /  6 km/h 52 % 0.0 in /  0 mm
18:20 15.1 °F /  -9.4 °C 5.3 °F /  -14.8 °C 1022.9 in /  34635.4 hPa West 5.6 mph /  9 km/h 5.6 mph /  9 km/h 52 % 0.0 in /  0 mm
18:25 15.0 °F /  -9.4 °C 5.2 °F /  -14.9 °C 1022.9 in /  34635.4 hPa WSW 5.6 mph /  9 km/h 5.6 mph /  9 km/h 52 % 0.0 in /  0 mm
18:30 15.2 °F /  -9.3 °C 5.4 °F /  -14.8 °C 1022.9 in /  34635.4 hPa WSW 3.2 mph /  5.1 km/h 6.4 mph /  10.3 km/h 52 % 0.0 in /  0 mm
18:35 15.2 °F /  -9.3 °C 5.4 °F /  -14.8 °C 1022.9 in /  34635.4 hPa West 3.7 mph /  6 km/h 3.7 mph /  6 km/h 52 % 0.0 in /  0 mm
18:40 15.2 °F /  -9.3 °C 5.7 °F /  -14.6 °C 1022.9 in /  34635.4 hPa West 3.9 mph /  6.3 km/h 3.9 mph /  6.3 km/h 53 % 0.0 in /  0 mm
18:45 15.3 °F /  -9.3 °C 5.8 °F /  -14.6 °C 1022.9 in /  34635.4 hPa West 1.6 mph /  2.6 km/h 4.8 mph /  7.7 km/h 53 % 0.0 in /  0 mm
18:50 15.3 °F /  -9.3 °C 5.7 °F /  -14.6 °C 1022.9 in /  34635.4 hPa West 3.2 mph /  5.1 km/h 4.8 mph /  7.7 km/h 53 % 0.0 in /  0 mm
18:55 15.2 °F /  -9.3 °C 5.7 °F /  -14.6 °C 1022.9 in /  34635.4 hPa West 4.8 mph /  7.7 km/h 8.0 mph /  12.9 km/h 53 % 0.0 in /  0 mm
19:00 15.1 °F /  -9.4 °C 5.6 °F /  -14.7 °C 1022.9 in /  34635.4 hPa West 3.2 mph /  5.1 km/h 8.0 mph /  12.9 km/h 53 % 0.0 in /  0 mm
19:05 15.1 °F /  -9.4 °C 5.6 °F /  -14.7 °C 1023.9 in /  34669.3 hPa West 3.2 mph /  5.1 km/h 8.0 mph /  12.9 km/h 53 % 0.0 in /  0 mm
19:10 15.1 °F /  -9.4 °C 5.6 °F /  -14.7 °C 1023.9 in /  34669.3 hPa WSW 6.4 mph /  10.3 km/h 6.4 mph /  10.3 km/h 53 % 0.0 in /  0 mm
19:15 15.0 °F /  -9.4 °C 5.5 °F /  -14.7 °C 1023.9 in /  34669.3 hPa West 4.8 mph /  7.7 km/h 8.0 mph /  12.9 km/h 53 % 0.0 in /  0 mm
19:20 15.0 °F /  -9.4 °C 5.5 °F /  -14.7 °C 1023.9 in /  34669.3 hPa WSW 3.2 mph /  5.1 km/h 9.7 mph /  15.6 km/h 53 % 0.0 in /  0 mm
19:25 14.9 °F /  -9.5 °C 5.4 °F /  -14.8 °C 1023.9 in /  34669.3 hPa WSW 3.2 mph /  5.1 km/h 8.0 mph /  12.9 km/h 53 % 0.0 in /  0 mm
19:30 14.9 °F /  -9.5 °C 5.4 °F /  -14.8 °C 1023.9 in /  34669.3 hPa WSW 4.8 mph /  7.7 km/h 9.7 mph /  15.6 km/h 53 % 0.0 in /  0 mm
19:35 15.0 °F /  -9.4 °C 5.5 °F /  -14.7 °C 1022.9 in /  34635.4 hPa WSW 8.0 mph /  12.9 km/h 9.7 mph /  15.6 km/h 53 % 0.0 in /  0 mm
19:40 15.1 °F /  -9.4 °C 5.6 °F /  -14.7 °C 1022.9 in /  34635.4 hPa WSW 4.8 mph /  7.7 km/h 9.7 mph /  15.6 km/h 53 % 0.0 in /  0 mm
19:45 15.2 °F /  -9.3 °C 5.7 °F /  -14.6 °C 1022.9 in /  34635.4 hPa West 3.2 mph /  5.1 km/h 8.0 mph /  12.9 km/h 53 % 0.0 in /  0 mm
19:50 15.1 °F /  -9.4 °C 5.6 °F /  -14.7 °C 1023.9 in /  34669.3 hPa West 9.3 mph /  15 km/h 9.3 mph /  15 km/h 53 % 0.0 in /  0 mm
19:55 14.9 °F /  -9.5 °C 5.4 °F /  -14.8 °C 1023.9 in /  34669.3 hPa West 4.8 mph /  7.7 km/h 8.0 mph /  12.9 km/h 53 % 0.0 in /  0 mm
20:00 15.0 °F /  -9.4 °C 5.5 °F /  -14.7 °C 1023.9 in /  34669.3 hPa West 4.8 mph /  7.7 km/h 12.9 mph /  20.8 km/h 53 % 0.0 in /  0 mm
20:05 15.0 °F /  -9.4 °C 5.5 °F /  -14.7 °C 1022.9 in /  34635.4 hPa WSW 5.6 mph /  9 km/h 5.6 mph /  9 km/h 53 % 0.0 in /  0 mm
20:10 14.8 °F /  -9.6 °C 5.3 °F /  -14.8 °C 1022.9 in /  34635.4 hPa WSW 5.6 mph /  9 km/h 5.6 mph /  9 km/h 53 % 0.0 in /  0 mm
20:15 14.6 °F /  -9.7 °C 5.1 °F /  -14.9 °C 1022.9 in /  34635.4 hPa West 3.2 mph /  5.1 km/h 4.8 mph /  7.7 km/h 53 % 0.0 in /  0 mm
20:20 14.6 °F /  -9.7 °C 5.1 °F /  -14.9 °C 1023.9 in /  34669.3 hPa WSW 3.2 mph /  5.1 km/h 4.8 mph /  7.7 km/h 53 % 0.0 in /  0 mm
20:25 14.5 °F /  -9.7 °C 5.0 °F /  -15 °C 1023.9 in /  34669.3 hPa WNW 3.7 mph /  6 km/h 3.7 mph /  6 km/h 53 % 0.0 in /  0 mm
20:30 14.5 °F /  -9.7 °C 5.0 °F /  -15 °C 1023.9 in /  34669.3 hPa WSW 4.8 mph /  7.7 km/h 8.0 mph /  12.9 km/h 53 % 0.0 in /  0 mm
20:35 14.4 °F /  -9.8 °C 4.9 °F /  -15.1 °C 1023.9 in /  34669.3 hPa WSW 5.8 mph /  9.3 km/h 5.8 mph /  9.3 km/h 53 % 0.0 in /  0 mm
20:40 14.3 °F /  -9.8 °C 4.8 °F /  -15.1 °C 1023.9 in /  34669.3 hPa WSW 3.2 mph /  5.1 km/h 8.0 mph /  12.9 km/h 53 % 0.0 in /  0 mm
20:45 14.3 °F /  -9.8 °C 4.8 °F /  -15.1 °C 1023.9 in /  34669.3 hPa WSW 4.8 mph /  7.7 km/h 9.7 mph /  15.6 km/h 53 % 0.0 in /  0 mm
20:50 14.3 °F /  -9.8 °C 4.8 °F /  -15.1 °C 1023.9 in /  34669.3 hPa WSW 3.2 mph /  5.1 km/h 6.4 mph /  10.3 km/h 53 % 0.0 in /  0 mm
20:55 14.3 °F /  -9.8 °C 5.1 °F /  -14.9 °C 1023.9 in /  34669.3 hPa West 4.8 mph /  7.7 km/h 9.7 mph /  15.6 km/h 54 % 0.0 in /  0 mm
21:00 14.4 °F /  -9.8 °C 5.2 °F /  -14.9 °C 1023.9 in /  34669.3 hPa WSW 8.0 mph /  12.9 km/h 12.9 mph /  20.8 km/h 54 % 0.0 in /  0 mm
21:05 14.4 °F /  -9.8 °C 5.2 °F /  -14.9 °C 1023.9 in /  34669.3 hPa WSW 4.8 mph /  7.7 km/h 11.3 mph /  18.2 km/h 54 % 0.0 in /  0 mm
21:10 14.4 °F /  -9.8 °C 5.2 °F /  -14.9 °C 1023.9 in /  34669.3 hPa WSW 3.2 mph /  5.1 km/h 11.3 mph /  18.2 km/h 54 % 0.0 in /  0 mm
21:15 14.4 °F /  -9.8 °C 5.2 °F /  -14.9 °C 1023.9 in /  34669.3 hPa West 3.2 mph /  5.1 km/h 6.4 mph /  10.3 km/h 54 % 0.0 in /  0 mm
21:20 14.4 °F /  -9.8 °C 5.2 °F /  -14.9 °C 1023.9 in /  34669.3 hPa WSW 4.8 mph /  7.7 km/h 8.0 mph /  12.9 km/h 54 % 0.0 in /  0 mm
21:25 14.3 °F /  -9.8 °C 5.1 °F /  -14.9 °C 1023.9 in /  34669.3 hPa West 1.6 mph /  2.6 km/h 8.0 mph /  12.9 km/h 54 % 0.0 in /  0 mm
21:30 14.2 °F /  -9.9 °C 5.0 °F /  -15 °C 1023.9 in /  34669.3 hPa Calm   3.2 mph /  5.1 km/h 54 % 0.0 in /  0 mm
21:35 14.1 °F /  -9.9 °C 4.9 °F /  -15.1 °C 1023.9 in /  34669.3 hPa Calm   3.2 mph /  5.1 km/h 54 % 0.0 in /  0 mm
21:40 13.9 °F /  -10.1 °C 4.7 °F /  -15.2 °C 1023.9 in /  34669.3 hPa SW 1.6 mph /  2.6 km/h 3.2 mph /  5.1 km/h 54 % 0.0 in /  0 mm
21:45 13.8 °F /  -10.1 °C 4.9 °F /  -15.1 °C 1023.9 in /  34669.3 hPa Calm     55 % 0.0 in /  0 mm
21:50 13.7 °F /  -10.2 °C 4.8 °F /  -15.1 °C 1023.9 in /  34669.3 hPa SSW 1.6 mph /  2.6 km/h 1.6 mph /  2.6 km/h 55 % 0.0 in /  0 mm
21:55 13.6 °F /  -10.2 °C 4.7 °F /  -15.2 °C 1023.9 in /  34669.3 hPa Calm   1.6 mph /  2.6 km/h 55 % 0.0 in /  0 mm
22:00 13.6 °F /  -10.2 °C 4.7 °F /  -15.2 °C 1023.9 in /  34669.3 hPa SW 3.2 mph /  5.1 km/h 4.8 mph /  7.7 km/h 55 % 0.0 in /  0 mm
22:05 13.6 °F /  -10.2 °C 4.7 °F /  -15.2 °C 1024.9 in /  34703.1 hPa Calm   3.2 mph /  5.1 km/h 55 % 0.0 in /  0 mm
22:10 13.5 °F /  -10.3 °C 4.6 °F /  -15.2 °C 1024.9 in /  34703.1 hPa Calm   3.2 mph /  5.1 km/h 55 % 0.0 in /  0 mm
22:15 13.4 °F /  -10.3 °C 4.6 °F /  -15.2 °C 1024.9 in /  34703.1 hPa WNW 1.6 mph /  2.6 km/h 3.2 mph /  5.1 km/h 55 % 0.0 in /  0 mm
22:20 13.4 °F /  -10.3 °C 4.6 °F /  -15.2 °C 1024.9 in /  34703.1 hPa West 3.2 mph /  5.1 km/h 4.8 mph /  7.7 km/h 55 % 0.0 in /  0 mm
22:25 13.5 °F /  -10.3 °C 4.9 °F /  -15.1 °C 1024.9 in /  34703.1 hPa Calm   3.2 mph /  5.1 km/h 56 % 0.0 in /  0 mm
22:30 13.5 °F /  -10.3 °C 4.9 °F /  -15.1 °C 1024.9 in /  34703.1 hPa West 1.6 mph /  2.6 km/h 8.0 mph /  12.9 km/h 56 % 0.0 in /  0 mm
22:35 13.3 °F /  -10.4 °C 4.7 °F /  -15.2 °C 1026.0 in /  34740.4 hPa West 1.6 mph /  2.6 km/h 3.2 mph /  5.1 km/h 56 % 0.0 in /  0 mm
22:40 13.2 °F /  -10.4 °C 4.6 °F /  -15.2 °C 1026.0 in /  34740.4 hPa West 1.6 mph /  2.6 km/h 3.2 mph /  5.1 km/h 56 % 0.0 in /  0 mm
22:45 13.1 °F /  -10.5 °C 4.8 °F /  -15.1 °C 1026.0 in /  34740.4 hPa WNW 1.6 mph /  2.6 km/h 3.2 mph /  5.1 km/h 57 % 0.0 in /  0 mm
22:50 13.0 °F /  -10.6 °C 4.7 °F /  -15.2 °C 1026.0 in /  34740.4 hPa Calm   3.2 mph /  5.1 km/h 57 % 0.0 in /  0 mm
22:55 13.0 °F /  -10.6 °C 4.7 °F /  -15.2 °C 1026.0 in /  34740.4 hPa ENE 1.6 mph /  2.6 km/h 3.2 mph /  5.1 km/h 57 % 0.0 in /  0 mm
23:00 13.0 °F /  -10.6 °C 4.7 °F /  -15.2 °C 1026.0 in /  34740.4 hPa WNW 1.9 mph /  3.1 km/h   57 % 0.0 in /  0 mm
23:05 13.0 °F /  -10.6 °C 4.9 °F /  -15.1 °C 1026.0 in /  34740.4 hPa Calm   1.6 mph /  2.6 km/h 58 % 0.0 in /  0 mm
23:10 13.0 °F /  -10.6 °C 4.9 °F /  -15.1 °C 1026.0 in /  34740.4 hPa Calm     58 % 0.0 in /  0 mm
23:15 13.0 °F /  -10.6 °C 4.9 °F /  -15.1 °C 1026.0 in /  34740.4 hPa Calm   1.6 mph /  2.6 km/h 58 % 0.0 in /  0 mm
23:20 12.8 °F /  -10.7 °C 4.7 °F /  -15.2 °C 1026.0 in /  34740.4 hPa Calm     58 % 0.0 in /  0 mm
23:25 12.8 °F /  -10.7 °C 5.0 °F /  -15 °C 1026.0 in /  34740.4 hPa Calm   1.6 mph /  2.6 km/h 59 % 0.0 in /  0 mm
23:30 12.7 °F /  -10.7 °C 4.9 °F /  -15.1 °C 1026.0 in /  34740.4 hPa Calm     59 % 0.0 in /  0 mm
23:35 12.5 °F /  -10.8 °C 4.7 °F /  -15.2 °C 1026.0 in /  34740.4 hPa NW 1.6 mph /  2.6 km/h 1.6 mph /  2.6 km/h 59 % 0.0 in /  0 mm
23:40 12.4 °F /  -10.9 °C 4.8 °F /  -15.1 °C 1026.0 in /  34740.4 hPa Calm   1.6 mph /  2.6 km/h 60 % 0.0 in /  0 mm
23:45 12.3 °F /  -10.9 °C 4.8 °F /  -15.1 °C 1026.0 in /  34740.4 hPa Calm   3.2 mph /  5.1 km/h 60 % 0.0 in /  0 mm
23:50 12.1 °F /  -11.1 °C 4.6 °F /  -15.2 °C 1026.0 in /  34740.4 hPa NNE 3.7 mph /  6 km/h 3.7 mph /  6 km/h 60 % 0.0 in /  0 mm
23:55 12.0 °F /  -11.1 °C 4.4 °F /  -15.3 °C 1026.0 in /  34740.4 hPa Calm   3.2 mph /  5.1 km/h 60 % 0.0 in /  0 mm
Meteo Sesrovires
Elogis d' Weather Underground - 1.75 mb

Guio original per  Jim McMurry - jmcmurry@mwt.net Adaptat per a la plantilla per  Wim van der Kuil - Leuven-Template.eu

Trobareu la nostra informacio del temps tambe a:

Weather Underground

AWEKAS